This is the latest recevied weather packets stored in our database for station/object KJ4TDM. If no packets are shown the sender has not sent any weather packets the latest 10 day(s).
| Time | Temp. | Humidity | Pressure | Rain* | Wind** | Luminosity | Snow |
|---|---|---|---|---|---|---|---|
| 1777873556 | 8.33° C | 91% | 1018.5 hPa | 0 mm | - | - | - |
| 1777870821 | 8.89° C | 89% | 1019 hPa | 0 mm | - | - | - |
| 1777869973 | 9.44° C | 89% | 1018.9 hPa | 0 mm | - | - | - |
| 1777868137 | 10° C | 88% | 1019 hPa | 0 mm | - | - | - |
| 1777855531 | 16.11° C | 61% | 1018.1 hPa | 0 mm | - | - | - |
| 1777854666 | 17.22° C | 58% | 1017.9 hPa | 0 mm | - | - | - |
| 1777848302 | 22.78° C | 38% | 1017.9 hPa | 0 mm | - | - | - |
| 1777840248 | 22.22° C | 36% | 1019.4 hPa | 0 mm | - | - | - |
| 1777837545 | 22.22° C | 35% | 1020.4 hPa | 0 mm | - | - | - |
| 1777834858 | 21.67° C | 40% | 1021.2 hPa | 0 mm | - | - | - |
| 1777831258 | 20.56° C | 42% | 1022 hPa | 0 mm | - | - | - |
| 1777830307 | 20° C | 43% | 1022 hPa | 0 mm | - | - | - |
| 1777826760 | 18.89° C | 47% | 1022.8 hPa | 0 mm | - | - | - |
| 1777825838 | 18.89° C | 47% | 1022.8 hPa | 0 mm | - | - | - |
| 1777824968 | 17.78° C | 48% | 1022.9 hPa | 0 mm | - | - | - |
| 1777819560 | 15.56° C | 61% | 1023.2 hPa | 0 mm | - | - | - |
| 1777818640 | 15° C | 65% | 1023.2 hPa | 0 mm | - | - | - |
| 1777814119 | 10.56° C | 83% | 1023 hPa | 0 mm | - | - | - |
| 1777812360 | 8.33° C | 90% | 1022.7 hPa | 0 mm | - | - | - |
| 1777806078 | 6.67° C | 90% | 1021.5 hPa | 0 mm | - | - | - |
| 1777804208 | 7.22° C | 89% | 1021.3 hPa | 0 mm | - | - | - |
| 1777803365 | 7.22° C | 88% | 1021.2 hPa | 0 mm | - | - | - |
| 1777802439 | 7.22° C | 87% | 1021 hPa | 0 mm | - | - | - |
| 1777801573 | 7.78° C | 86% | 1020.8 hPa | 0 mm | - | - | - |
| 1777800678 | 8.33° C | 85% | 1020.7 hPa | 0 mm | - | - | - |
* Rain latest hour (hover to see other rain measurements)
** Current wind speed in m/s (hover to see current wind gust speed)